sensor_id;sensor_type;location;lat;lon;timestamp;pressure;altitude;pressure_sealevel;temperature
71640;BMP280;60912;48.968;10.124;2022-09-11T00:00:38;96661.56;;;15.65
71640;BMP280;60912;48.968;10.124;2022-09-11T00:03:03;96667.03;;;15.73
71640;BMP280;60912;48.968;10.124;2022-09-11T00:05:29;96663.25;;;15.78
71640;BMP280;60912;48.968;10.124;2022-09-11T00:07:55;96658.03;;;15.91
71640;BMP280;60912;48.968;10.124;2022-09-11T00:10:22;96654.56;;;16.00
71640;BMP280;60912;48.968;10.124;2022-09-11T00:12:49;96651.31;;;15.94
71640;BMP280;60912;48.968;10.124;2022-09-11T00:15:15;96649.56;;;15.99
71640;BMP280;60912;48.968;10.124;2022-09-11T00:17:40;96653.22;;;16.01
71640;BMP280;60912;48.968;10.124;2022-09-11T00:20:06;96662.75;;;16.08
71640;BMP280;60912;48.968;10.124;2022-09-11T00:22:31;96661.94;;;16.15
71640;BMP280;60912;48.968;10.124;2022-09-11T00:24:57;96665.28;;;16.13
71640;BMP280;60912;48.968;10.124;2022-09-11T00:27:23;96652.84;;;16.05
71640;BMP280;60912;48.968;10.124;2022-09-11T00:29:49;96655.63;;;16.05
71640;BMP280;60912;48.968;10.124;2022-09-11T00:32:14;96651.19;;;16.02
71640;BMP280;60912;48.968;10.124;2022-09-11T00:34:40;96645.91;;;15.96
71640;BMP280;60912;48.968;10.124;2022-09-11T00:37:06;96641.78;;;15.88
71640;BMP280;60912;48.968;10.124;2022-09-11T00:39:31;96643.25;;;15.89
71640;BMP280;60912;48.968;10.124;2022-09-11T00:41:57;96647.78;;;15.94
71640;BMP280;60912;48.968;10.124;2022-09-11T00:54:39;96630.66;;;15.78
71640;BMP280;60912;48.968;10.124;2022-09-11T00:57:07;96622.88;;;15.77
71640;BMP280;60912;48.968;10.124;2022-09-11T00:59:33;96620.56;;;15.83
71640;BMP280;60912;48.968;10.124;2022-09-11T01:01:59;96625.97;;;15.90
71640;BMP280;60912;48.968;10.124;2022-09-11T01:04:25;96617.91;;;15.85
71640;BMP280;60912;48.968;10.124;2022-09-11T01:06:55;96610.59;;;15.80
71640;BMP280;60912;48.968;10.124;2022-09-11T01:09:24;96613.16;;;15.68
71640;BMP280;60912;48.968;10.124;2022-09-11T01:12:05;96617.00;;;15.73
71640;BMP280;60912;48.968;10.124;2022-09-11T01:14:50;96616.47;;;15.84
71640;BMP280;60912;48.968;10.124;2022-09-11T01:17:37;96609.19;;;15.98
71640;BMP280;60912;48.968;10.124;2022-09-11T01:28:07;96611.75;;;15.67
71640;BMP280;60912;48.968;10.124;2022-09-11T01:30:39;96618.09;;;15.50
71640;BMP280;60912;48.968;10.124;2022-09-11T01:33:26;96621.84;;;15.45
71640;BMP280;60912;48.968;10.124;2022-09-11T01:36:34;96608.47;;;15.51
71640;BMP280;60912;48.968;10.124;2022-09-11T01:39:01;96609.63;;;15.58
71640;BMP280;60912;48.968;10.124;2022-09-11T01:41:50;96611.13;;;15.68
71640;BMP280;60912;48.968;10.124;2022-09-11T01:44:21;96613.53;;;15.82
71640;BMP280;60912;48.968;10.124;2022-09-11T01:46:51;96614.44;;;15.94
71640;BMP280;60912;48.968;10.124;2022-09-11T01:49:27;96613.38;;;15.80
71640;BMP280;60912;48.968;10.124;2022-09-11T01:51:58;96613.50;;;15.72
71640;BMP280;60912;48.968;10.124;2022-09-11T01:54:31;96623.63;;;15.87
71640;BMP280;60912;48.968;10.124;2022-09-11T01:57:06;96630.91;;;15.73
71640;BMP280;60912;48.968;10.124;2022-09-11T01:59:41;96620.38;;;15.81
71640;BMP280;60912;48.968;10.124;2022-09-11T02:02:11;96623.81;;;15.89
71640;BMP280;60912;48.968;10.124;2022-09-11T02:04:45;96625.88;;;15.98
71640;BMP280;60912;48.968;10.124;2022-09-11T02:07:18;96617.91;;;15.85
71640;BMP280;60912;48.968;10.124;2022-09-11T02:09:50;96616.75;;;15.78
71640;BMP280;60912;48.968;10.124;2022-09-11T02:12:20;96617.03;;;15.82
71640;BMP280;60912;48.968;10.124;2022-09-11T02:14:49;96619.06;;;15.82
71640;BMP280;60912;48.968;10.124;2022-09-11T02:17:40;96612.63;;;15.79
71640;BMP280;60912;48.968;10.124;2022-09-11T02:20:09;96620.34;;;15.71
71640;BMP280;60912;48.968;10.124;2022-09-11T02:22:35;96622.41;;;15.70
71640;BMP280;60912;48.968;10.124;2022-09-11T02:25:01;96619.06;;;15.72
71640;BMP280;60912;48.968;10.124;2022-09-11T02:27:27;96617.16;;;15.75
71640;BMP280;60912;48.968;10.124;2022-09-11T02:29:56;96625.81;;;15.79
71640;BMP280;60912;48.968;10.124;2022-09-11T02:32:22;96622.75;;;15.84
71640;BMP280;60912;48.968;10.124;2022-09-11T02:34:50;96615.19;;;15.94
71640;BMP280;60912;48.968;10.124;2022-09-11T02:37:43;96617.09;;;15.92
71640;BMP280;60912;48.968;10.124;2022-09-11T02:48:42;96611.13;;;15.68
71640;BMP280;60912;48.968;10.124;2022-09-11T02:51:30;96612.75;;;15.72
71640;BMP280;60912;48.968;10.124;2022-09-11T02:59:44;96612.78;;;15.81
71640;BMP280;60912;48.968;10.124;2022-09-11T03:02:12;96613.63;;;15.64
71640;BMP280;60912;48.968;10.124;2022-09-11T03:04:38;96612.75;;;15.72
71640;BMP280;60912;48.968;10.124;2022-09-11T03:07:03;96609.81;;;15.69
71640;BMP280;60912;48.968;10.124;2022-09-11T03:09:29;96616.75;;;15.78
71640;BMP280;60912;48.968;10.124;2022-09-11T03:11:54;96621.72;;;15.80
71640;BMP280;60912;48.968;10.124;2022-09-11T03:14:20;96621.09;;;15.72
71640;BMP280;60912;48.968;10.124;2022-09-11T03:16:45;96618.88;;;15.70
71640;BMP280;60912;48.968;10.124;2022-09-11T03:19:11;96614.72;;;15.79
71640;BMP280;60912;48.968;10.124;2022-09-11T03:21:37;96619.06;;;15.82
71640;BMP280;60912;48.968;10.124;2022-09-11T03:24:04;96618.38;;;15.91
71640;BMP280;60912;48.968;10.124;2022-09-11T03:26:29;96617.81;;;15.92
71640;BMP280;60912;48.968;10.124;2022-09-11T03:28:57;96617.81;;;15.92
71640;BMP280;60912;48.968;10.124;2022-09-11T03:31:22;96621.03;;;15.89
71640;BMP280;60912;48.968;10.124;2022-09-11T03:33:48;96620.00;;;15.94
71640;BMP280;60912;48.968;10.124;2022-09-11T03:36:13;96614.91;;;16.00
71640;BMP280;60912;48.968;10.124;2022-09-11T03:38:39;96619.13;;;16.01
71640;BMP280;60912;48.968;10.124;2022-09-11T03:41:04;96623.63;;;15.87
71640;BMP280;60912;48.968;10.124;2022-09-11T03:43:30;96618.38;;;15.91
71640;BMP280;60912;48.968;10.124;2022-09-11T03:45:56;96620.00;;;15.94
71640;BMP280;60912;48.968;10.124;2022-09-11T03:48:21;96613.41;;;15.89
71640;BMP280;60912;48.968;10.124;2022-09-11T03:50:49;96627.03;;;15.95
71640;BMP280;60912;48.968;10.124;2022-09-11T03:53:15;96628.19;;;15.92
71640;BMP280;60912;48.968;10.124;2022-09-11T03:55:40;96632.00;;;15.96
71640;BMP280;60912;48.968;10.124;2022-09-11T03:58:06;96630.59;;;16.05
71640;BMP280;60912;48.968;10.124;2022-09-11T04:00:34;96628.06;;;15.99
71640;BMP280;60912;48.968;10.124;2022-09-11T04:03:00;96630.13;;;15.99
71640;BMP280;60912;48.968;10.124;2022-09-11T04:05:26;96633.75;;;15.92
71640;BMP280;60912;48.968;10.124;2022-09-11T04:07:52;96634.03;;;15.96
71640;BMP280;60912;48.968;10.124;2022-09-11T04:10:18;96637.41;;;15.94
71640;BMP280;60912;48.968;10.124;2022-09-11T04:12:45;96633.03;;;15.91
71640;BMP280;60912;48.968;10.124;2022-09-11T04:15:11;96641.06;;;15.97
71640;BMP280;60912;48.968;10.124;2022-09-11T04:17:36;96636.81;;;15.96
71640;BMP280;60912;48.968;10.124;2022-09-11T04:20:03;96647.28;;;16.05
71640;BMP280;60912;48.968;10.124;2022-09-11T04:22:28;96646.56;;;16.14
71640;BMP280;60912;48.968;10.124;2022-09-11T04:24:54;96652.38;;;16.18
71640;BMP280;60912;48.968;10.124;2022-09-11T04:27:19;96656.63;;;16.19
71640;BMP280;60912;48.968;10.124;2022-09-11T04:29:45;96659.41;;;16.19
71640;BMP280;60912;48.968;10.124;2022-09-11T04:32:11;96659.31;;;16.27
71640;BMP280;60912;48.968;10.124;2022-09-11T04:34:36;96663.53;;;16.28
71640;BMP280;60912;48.968;10.124;2022-09-11T04:37:02;96666.19;;;16.16
71640;BMP280;60912;48.968;10.124;2022-09-11T04:39:28;96667.19;;;16.21
71640;BMP280;60912;48.968;10.124;2022-09-11T04:41:55;96663.97;;;16.24
71640;BMP280;60912;48.968;10.124;2022-09-11T04:44:21;96673.22;;;16.27
71640;BMP280;60912;48.968;10.124;2022-09-11T04:46:49;96666.56;;;16.12
71640;BMP280;60912;48.968;10.124;2022-09-11T04:49:15;96672.94;;;15.96
71640;BMP280;60912;48.968;10.124;2022-09-11T04:51:41;96681.94;;;16.04
71640;BMP280;60912;48.968;10.124;2022-09-11T04:54:07;96684.75;;;16.13
71640;BMP280;60912;48.968;10.124;2022-09-11T04:56:34;96683.13;;;16.10
71640;BMP280;60912;48.968;10.124;2022-09-11T04:59:09;96683.53;;;16.07
71640;BMP280;60912;48.968;10.124;2022-09-11T05:01:38;96683.41;;;16.05
71640;BMP280;60912;48.968;10.124;2022-09-11T05:04:04;96689.81;;;16.07
71640;BMP280;60912;48.968;10.124;2022-09-11T05:06:30;96687.63;;;16.06
71640;BMP280;60912;48.968;10.124;2022-09-11T05:09:00;96700.75;;;15.96
71640;BMP280;60912;48.968;10.124;2022-09-11T05:11:26;96698.13;;;15.98
71640;BMP280;60912;48.968;10.124;2022-09-11T05:13:52;96702.53;;;16.01
71640;BMP280;60912;48.968;10.124;2022-09-11T05:16:18;96709.25;;;15.98
71640;BMP280;60912;48.968;10.124;2022-09-11T05:18:48;96705.47;;;16.03
71640;BMP280;60912;48.968;10.124;2022-09-11T05:21:16;96708.44;;;16.05
71640;BMP280;60912;48.968;10.124;2022-09-11T05:23:46;96715.75;;;16.10
71640;BMP280;60912;48.968;10.124;2022-09-11T05:26:15;96710.75;;;16.08
71640;BMP280;60912;48.968;10.124;2022-09-11T05:28:44;96714.00;;;16.05
71640;BMP280;60912;48.968;10.124;2022-09-11T05:31:11;96720.56;;;16.09
71640;BMP280;60912;48.968;10.124;2022-09-11T05:33:37;96727.34;;;16.16
71640;BMP280;60912;48.968;10.124;2022-09-11T05:36:04;96734.22;;;16.15
71640;BMP280;60912;48.968;10.124;2022-09-11T05:38:30;96733.66;;;16.16
71640;BMP280;60912;48.968;10.124;2022-09-11T05:40:55;96736.59;;;16.28
71640;BMP280;60912;48.968;10.124;2022-09-11T05:43:21;96738.59;;;16.18
71640;BMP280;60912;48.968;10.124;2022-09-11T05:45:56;96746.66;;;16.24
71640;BMP280;60912;48.968;10.124;2022-09-11T05:48:22;96745.25;;;16.32
71640;BMP280;60912;48.968;10.124;2022-09-11T05:51:01;96742.84;;;16.19
71640;BMP280;60912;48.968;10.124;2022-09-11T05:53:28;96751.34;;;16.21
71640;BMP280;60912;48.968;10.124;2022-09-11T05:55:56;96756.66;;;16.27
71640;BMP280;60912;48.968;10.124;2022-09-11T05:58:24;96759.16;;;16.32
71640;BMP280;60912;48.968;10.124;2022-09-11T06:01:02;96758.56;;;16.43
71640;BMP280;60912;48.968;10.124;2022-09-11T06:03:29;96763.00;;;16.46
71640;BMP280;60912;48.968;10.124;2022-09-11T06:05:58;96760.78;;;16.45
71640;BMP280;60912;48.968;10.124;2022-09-11T06:08:23;96772.38;;;16.41
71640;BMP280;60912;48.968;10.124;2022-09-11T06:10:49;96770.03;;;16.47
71640;BMP280;60912;48.968;10.124;2022-09-11T06:13:14;96773.84;;;16.42
71640;BMP280;60912;48.968;10.124;2022-09-11T06:15:45;96775.25;;;16.43
71640;BMP280;60912;48.968;10.124;2022-09-11T06:18:12;96781.72;;;16.46
71640;BMP280;60912;48.968;10.124;2022-09-11T06:20:37;96783.69;;;16.53
71640;BMP280;60912;48.968;10.124;2022-09-11T06:23:03;96775.81;;;16.68
71640;BMP280;60912;48.968;10.124;2022-09-11T06:25:28;96788.09;;;16.65
71640;BMP280;60912;48.968;10.124;2022-09-11T06:27:54;96779.75;;;16.65
71640;BMP280;60912;48.968;10.124;2022-09-11T06:30:20;96791.06;;;16.67
71640;BMP280;60912;48.968;10.124;2022-09-11T06:32:47;96793.84;;;16.67
71640;BMP280;60912;48.968;10.124;2022-09-11T06:35:12;96787.00;;;16.97
71640;BMP280;60912;48.968;10.124;2022-09-11T06:37:38;96789.22;;;17.18
71640;BMP280;60912;48.968;10.124;2022-09-11T06:40:04;96789.22;;;17.37
71640;BMP280;60912;48.968;10.124;2022-09-11T06:42:29;96785.66;;;17.46
71640;BMP280;60912;48.968;10.124;2022-09-11T06:44:54;96794.91;;;17.58
71640;BMP280;60912;48.968;10.124;2022-09-11T06:47:20;96789.94;;;17.47
71640;BMP280;60912;48.968;10.124;2022-09-11T06:49:46;96800.66;;;17.41
71640;BMP280;60912;48.968;10.124;2022-09-11T06:52:11;96798.28;;;17.47
71640;BMP280;60912;48.968;10.124;2022-09-11T06:54:36;96800.34;;;17.47
71640;BMP280;60912;48.968;10.124;2022-09-11T06:57:02;96804.16;;;17.51
71640;BMP280;60912;48.968;10.124;2022-09-11T06:59:27;96814.41;;;17.58
71640;BMP280;60912;48.968;10.124;2022-09-11T07:01:53;96809.00;;;17.51
71640;BMP280;60912;48.968;10.124;2022-09-11T07:04:19;96816.91;;;17.35
71640;BMP280;60912;48.968;10.124;2022-09-11T07:06:45;96811.91;;;17.14
71640;BMP280;60912;48.968;10.124;2022-09-11T07:09:10;96814.56;;;17.12
71640;BMP280;60912;48.968;10.124;2022-09-11T07:11:36;96812.94;;;17.19
71640;BMP280;60912;48.968;10.124;2022-09-11T07:14:03;96817.47;;;17.14
71640;BMP280;60912;48.968;10.124;2022-09-11T07:16:33;96813.84;;;17.31
71640;BMP280;60912;48.968;10.124;2022-09-11T07:18:59;96820.72;;;17.49
71640;BMP280;60912;48.968;10.124;2022-09-11T07:21:26;96821.91;;;17.56
71640;BMP280;60912;48.968;10.124;2022-09-11T07:23:54;96827.91;;;17.62
71640;BMP280;60912;48.968;10.124;2022-09-11T07:26:21;96833.94;;;17.49
71640;BMP280;60912;48.968;10.124;2022-09-11T07:28:47;96832.59;;;17.59
71640;BMP280;60912;48.968;10.124;2022-09-11T07:31:24;96832.31;;;17.46
71640;BMP280;60912;48.968;10.124;2022-09-11T07:33:59;96833.63;;;17.26
71640;BMP280;60912;48.968;10.124;2022-09-11T07:39:25;96844.19;;;17.37
71640;BMP280;60912;48.968;10.124;2022-09-11T07:41:53;96841.56;;;17.39
71640;BMP280;60912;48.968;10.124;2022-09-11T07:44:18;96852.53;;;17.46
71640;BMP280;60912;48.968;10.124;2022-09-11T07:46:51;96856.78;;;17.57
71640;BMP280;60912;48.968;10.124;2022-09-11T07:49:17;96857.09;;;17.51
71640;BMP280;60912;48.968;10.124;2022-09-11T07:51:46;96853.13;;;17.54
71640;BMP280;60912;48.968;10.124;2022-09-11T07:54:14;96854.59;;;17.75
71640;BMP280;60912;48.968;10.124;2022-09-11T07:56:42;96857.94;;;18.02
71640;BMP280;60912;48.968;10.124;2022-09-11T07:59:08;96862.41;;;18.26
71640;BMP280;60912;48.968;10.124;2022-09-11T08:01:40;96854.72;;;18.36
71640;BMP280;60912;48.968;10.124;2022-09-11T08:04:15;96862.69;;;18.40
71640;BMP280;60912;48.968;10.124;2022-09-11T08:06:43;96861.31;;;18.50
71640;BMP280;60912;48.968;10.124;2022-09-11T08:09:12;96870.41;;;18.51
71640;BMP280;60912;48.968;10.124;2022-09-11T08:11:44;96858.50;;;18.50
71640;BMP280;60912;48.968;10.124;2022-09-11T08:14:11;96867.44;;;18.58
71640;BMP280;60912;48.968;10.124;2022-09-11T08:16:38;96873.44;;;18.64
71640;BMP280;60912;48.968;10.124;2022-09-11T08:19:05;96879.22;;;18.57
71640;BMP280;60912;48.968;10.124;2022-09-11T08:21:31;96880.09;;;18.50
71640;BMP280;60912;48.968;10.124;2022-09-11T08:23:59;96880.28;;;18.42
71640;BMP280;60912;48.968;10.124;2022-09-11T08:26:30;96888.53;;;18.31
71640;BMP280;60912;48.968;10.124;2022-09-11T08:29:07;96888.22;;;18.36
71640;BMP280;60912;48.968;10.124;2022-09-11T08:31:33;96896.72;;;18.48
71640;BMP280;60912;48.968;10.124;2022-09-11T08:34:00;96895.00;;;18.43
71640;BMP280;60912;48.968;10.124;2022-09-11T08:36:25;96901.56;;;18.47
71640;BMP280;60912;48.968;10.124;2022-09-11T08:38:54;96897.03;;;18.42
71640;BMP280;60912;48.968;10.124;2022-09-11T08:41:31;96897.59;;;18.50
71640;BMP280;60912;48.968;10.124;2022-09-11T08:46:40;96906.81;;;18.62
71640;BMP280;60912;48.968;10.124;2022-09-11T08:49:42;96905.34;;;18.61
71640;BMP280;60912;48.968;10.124;2022-09-11T08:52:13;96911.97;;;18.87
71640;BMP280;60912;48.968;10.124;2022-09-11T08:54:40;96909.16;;;18.66
71640;BMP280;60912;48.968;10.124;2022-09-11T08:57:19;96915.72;;;18.70
71640;BMP280;60912;48.968;10.124;2022-09-11T09:18:55;96924.88;;;19.44
71640;BMP280;60912;48.968;10.124;2022-09-11T09:21:46;96928.47;;;19.56
71640;BMP280;60912;48.968;10.124;2022-09-11T09:24:17;96919.56;;;19.69
71640;BMP280;60912;48.968;10.124;2022-09-11T09:26:48;96928.59;;;19.58
71640;BMP280;60912;48.968;10.124;2022-09-11T09:29:21;96929.72;;;19.65
71640;BMP280;60912;48.968;10.124;2022-09-11T09:31:52;96933.81;;;19.52
71640;BMP280;60912;48.968;10.124;2022-09-11T09:34:19;96926.06;;;19.62
71640;BMP280;60912;48.968;10.124;2022-09-11T09:36:54;96931.13;;;19.54
71640;BMP280;60912;48.968;10.124;2022-09-11T09:39:21;96932.59;;;19.55
71640;BMP280;60912;48.968;10.124;2022-09-11T09:44:40;96932.94;;;19.29
71640;BMP280;60912;48.968;10.124;2022-09-11T09:47:09;96931.75;;;19.22
71640;BMP280;60912;48.968;10.124;2022-09-11T09:49:37;96927.63;;;19.33
71640;BMP280;60912;48.968;10.124;2022-09-11T09:52:14;96930.72;;;19.27
71640;BMP280;60912;48.968;10.124;2022-09-11T09:54:52;96930.47;;;19.44
71640;BMP280;60912;48.968;10.124;2022-09-11T09:57:19;96935.25;;;19.53
71640;BMP280;60912;48.968;10.124;2022-09-11T09:59:53;96933.91;;;19.75
71640;BMP280;60912;48.968;10.124;2022-09-11T10:02:42;96931.72;;;20.07
71640;BMP280;60912;48.968;10.124;2022-09-11T10:07:53;96939.78;;;20.24
71640;BMP280;60912;48.968;10.124;2022-09-11T10:10:21;96938.22;;;20.33
71640;BMP280;60912;48.968;10.124;2022-09-11T10:12:48;96937.72;;;20.36
71640;BMP280;60912;48.968;10.124;2022-09-11T10:15:19;96937.28;;;20.51
71640;BMP280;60912;48.968;10.124;2022-09-11T10:17:47;96932.69;;;20.67
71640;BMP280;60912;48.968;10.124;2022-09-11T10:22:38;96941.28;;;20.48
71640;BMP280;60912;48.968;10.124;2022-09-11T10:25:17;96943.75;;;20.65
71640;BMP280;60912;48.968;10.124;2022-09-11T10:30:36;96939.72;;;20.57
71640;BMP280;60912;48.968;10.124;2022-09-11T10:33:05;96933.63;;;20.60
71640;BMP280;60912;48.968;10.124;2022-09-11T10:35:50;96936.78;;;20.43
71640;BMP280;60912;48.968;10.124;2022-09-11T10:38:20;96929.47;;;20.84
71640;BMP280;60912;48.968;10.124;2022-09-11T10:43:47;96934.72;;;21.50
71640;BMP280;60912;48.968;10.124;2022-09-11T10:46:23;96933.94;;;21.73
71640;BMP280;60912;48.968;10.124;2022-09-11T10:51:20;96937.78;;;21.54
71640;BMP280;60912;48.968;10.124;2022-09-11T10:54:13;96931.59;;;21.44
71640;BMP280;60912;48.968;10.124;2022-09-11T10:59:34;96942.56;;;22.02
71640;BMP280;60912;48.968;10.124;2022-09-11T11:02:00;96934.16;;;22.41
71640;BMP280;60912;48.968;10.124;2022-09-11T11:04:28;96929.72;;;22.90
71640;BMP280;60912;48.968;10.124;2022-09-11T11:07:18;96935.25;;;23.02
71640;BMP280;60912;48.968;10.124;2022-09-11T11:15:40;96923.28;;;23.58
71640;BMP280;60912;48.968;10.124;2022-09-11T11:18:17;96908.75;;;24.08
71640;BMP280;60912;48.968;10.124;2022-09-11T11:23:49;96915.56;;;24.03
71640;BMP280;60912;48.968;10.124;2022-09-11T11:37:26;96924.31;;;22.94
71640;BMP280;60912;48.968;10.124;2022-09-11T11:40:05;96935.97;;;22.75
71640;BMP280;60912;48.968;10.124;2022-09-11T11:42:42;96924.44;;;22.17
71640;BMP280;60912;48.968;10.124;2022-09-11T11:47:42;96940.81;;;21.58
71640;BMP280;60912;48.968;10.124;2022-09-11T11:50:25;96941.28;;;21.66
71640;BMP280;60912;48.968;10.124;2022-09-11T11:53:15;96943.44;;;21.43
71640;BMP280;60912;48.968;10.124;2022-09-11T12:01:51;96956.59;;;21.77
71640;BMP280;60912;48.968;10.124;2022-09-11T12:07:00;96955.44;;;21.93
71640;BMP280;60912;48.968;10.124;2022-09-11T12:09:26;96957.13;;;21.99
71640;BMP280;60912;48.968;10.124;2022-09-11T12:12:01;96954.50;;;22.28
71640;BMP280;60912;48.968;10.124;2022-09-11T12:14:29;96949.28;;;22.61
71640;BMP280;60912;48.968;10.124;2022-09-11T12:36:18;96945.75;;;23.87
71640;BMP280;60912;48.968;10.124;2022-09-11T12:38:53;96941.19;;;24.09
71640;BMP280;60912;48.968;10.124;2022-09-11T12:41:33;96934.34;;;23.99
71640;BMP280;60912;48.968;10.124;2022-09-11T12:44:01;96928.06;;;23.85
71640;BMP280;60912;48.968;10.124;2022-09-11T12:49:17;96926.84;;;23.74
71640;BMP280;60912;48.968;10.124;2022-09-11T12:51:50;96921.69;;;23.84
71640;BMP280;60912;48.968;10.124;2022-09-11T12:54:22;96926.81;;;24.03
71640;BMP280;60912;48.968;10.124;2022-09-11T12:56:56;96920.59;;;23.76
71640;BMP280;60912;48.968;10.124;2022-09-11T12:59:30;96925.56;;;23.77
71640;BMP280;60912;48.968;10.124;2022-09-11T13:01:56;96919.78;;;23.89
71640;BMP280;60912;48.968;10.124;2022-09-11T13:04:24;96924.13;;;23.76
71640;BMP280;60912;48.968;10.124;2022-09-11T13:06:51;96917.03;;;23.75
71640;BMP280;60912;48.968;10.124;2022-09-11T13:09:24;96916.28;;;23.59
71640;BMP280;60912;48.968;10.124;2022-09-11T13:14:52;96918.84;;;23.26
71640;BMP280;60912;48.968;10.124;2022-09-11T13:17:28;96911.31;;;23.44
71640;BMP280;60912;48.968;10.124;2022-09-11T13:22:29;96905.78;;;24.36
71640;BMP280;60912;48.968;10.124;2022-09-11T13:25:24;96904.88;;;24.80
71640;BMP280;60912;48.968;10.124;2022-09-11T13:27:55;96901.88;;;25.09
71640;BMP280;60912;48.968;10.124;2022-09-11T13:30:23;96895.47;;;24.58
71640;BMP280;60912;48.968;10.124;2022-09-11T13:32:52;96903.00;;;24.38
71640;BMP280;60912;48.968;10.124;2022-09-11T13:35:26;96897.59;;;24.10
71640;BMP280;60912;48.968;10.124;2022-09-11T13:38:17;96901.50;;;24.35
71640;BMP280;60912;48.968;10.124;2022-09-11T13:41:02;96898.66;;;24.19
71640;BMP280;60912;48.968;10.124;2022-09-11T13:43:33;96900.84;;;23.60
71640;BMP280;60912;48.968;10.124;2022-09-11T13:48:41;96900.91;;;23.91
71640;BMP280;60912;48.968;10.124;2022-09-11T13:51:28;96893.72;;;23.88
71640;BMP280;60912;48.968;10.124;2022-09-11T13:53:57;96903.06;;;23.61
71640;BMP280;60912;48.968;10.124;2022-09-11T14:02:27;96889.09;;;23.50
71640;BMP280;60912;48.968;10.124;2022-09-11T14:05:22;96888.78;;;23.57
71640;BMP280;60912;48.968;10.124;2022-09-11T14:08:02;96882.63;;;23.61
71640;BMP280;60912;48.968;10.124;2022-09-11T14:13:33;96889.97;;;22.96
71640;BMP280;60912;48.968;10.124;2022-09-11T14:16:08;96885.91;;;22.85
71640;BMP280;60912;48.968;10.124;2022-09-11T14:18:52;96884.44;;;22.84
71640;BMP280;60912;48.968;10.124;2022-09-11T14:21:35;96893.63;;;22.85
71640;BMP280;60912;48.968;10.124;2022-09-11T14:24:02;96889.25;;;22.82
71640;BMP280;60912;48.968;10.124;2022-09-11T14:29:01;96884.34;;;22.55
71640;BMP280;60912;48.968;10.124;2022-09-11T14:31:29;96886.63;;;22.45
71640;BMP280;60912;48.968;10.124;2022-09-11T14:34:25;96881.50;;;22.28
71640;BMP280;60912;48.968;10.124;2022-09-11T14:37:05;96888.28;;;22.36
71640;BMP280;60912;48.968;10.124;2022-09-11T14:39:37;96890.56;;;22.40
71640;BMP280;60912;48.968;10.124;2022-09-11T14:42:08;96886.50;;;22.43
71640;BMP280;60912;48.968;10.124;2022-09-11T14:44:37;96893.19;;;22.49
71640;BMP280;60912;48.968;10.124;2022-09-11T14:47:05;96888.34;;;22.11
71640;BMP280;60912;48.968;10.124;2022-09-11T14:49:30;96881.06;;;22.06
71640;BMP280;60912;48.968;10.124;2022-09-11T14:51:58;96881.88;;;21.95
71640;BMP280;60912;48.968;10.124;2022-09-11T14:54:26;96873.00;;;22.01
71640;BMP280;60912;48.968;10.124;2022-09-11T14:56:56;96874.56;;;21.90
71640;BMP280;60912;48.968;10.124;2022-09-11T14:59:23;96876.03;;;21.91
71640;BMP280;60912;48.968;10.124;2022-09-11T15:01:49;96874.94;;;22.10
71640;BMP280;60912;48.968;10.124;2022-09-11T15:04:18;96871.22;;;22.32
71640;BMP280;60912;48.968;10.124;2022-09-11T15:06:48;96865.38;;;22.15
71640;BMP280;60912;48.968;10.124;2022-09-11T15:09:14;96865.00;;;22.34
71640;BMP280;60912;48.968;10.124;2022-09-11T15:11:39;96867.59;;;22.43
71640;BMP280;60912;48.968;10.124;2022-09-11T15:14:06;96862.09;;;22.59
71640;BMP280;60912;48.968;10.124;2022-09-11T15:16:33;96869.56;;;22.41
71640;BMP280;60912;48.968;10.124;2022-09-11T15:18:59;96860.81;;;22.08
71640;BMP280;60912;48.968;10.124;2022-09-11T15:21:24;96857.94;;;21.94
71640;BMP280;60912;48.968;10.124;2022-09-11T15:23:50;96865.63;;;21.93
71640;BMP280;60912;48.968;10.124;2022-09-11T15:26:19;96857.22;;;21.93
71640;BMP280;60912;48.968;10.124;2022-09-11T15:28:45;96853.50;;;22.03
71640;BMP280;60912;48.968;10.124;2022-09-11T15:31:15;96864.13;;;22.18
71640;BMP280;60912;48.968;10.124;2022-09-11T15:33:43;96865.50;;;22.30
71640;BMP280;60912;48.968;10.124;2022-09-11T15:36:11;96857.50;;;22.38
71640;BMP280;60912;48.968;10.124;2022-09-11T15:38:38;96858.13;;;22.37
71640;BMP280;60912;48.968;10.124;2022-09-11T15:41:05;96854.59;;;22.50
71640;BMP280;60912;48.968;10.124;2022-09-11T15:43:34;96851.03;;;22.63
71640;BMP280;60912;48.968;10.124;2022-09-11T15:46:06;96857.09;;;22.71
71640;BMP280;60912;48.968;10.124;2022-09-11T15:48:33;96857.72;;;22.56
71640;BMP280;60912;48.968;10.124;2022-09-11T15:51:03;96857.50;;;22.52
71640;BMP280;60912;48.968;10.124;2022-09-11T15:53:30;96854.59;;;22.64
71640;BMP280;60912;48.968;10.124;2022-09-11T15:56:07;96857.28;;;22.75
71640;BMP280;60912;48.968;10.124;2022-09-11T15:58:37;96850.41;;;22.78
71640;BMP280;60912;48.968;10.124;2022-09-11T16:01:07;96856.03;;;22.78
71640;BMP280;60912;48.968;10.124;2022-09-11T16:03:42;96848.25;;;22.63
71640;BMP280;60912;48.968;10.124;2022-09-11T16:06:07;96848.13;;;22.61
71640;BMP280;60912;48.968;10.124;2022-09-11T16:08:33;96846.69;;;22.60
71640;BMP280;60912;48.968;10.124;2022-09-11T16:11:03;96847.44;;;22.61
71640;BMP280;60912;48.968;10.124;2022-09-11T16:13:28;96848.88;;;22.62
71640;BMP280;60912;48.968;10.124;2022-09-11T16:16:10;96839.81;;;22.63
71640;BMP280;60912;48.968;10.124;2022-09-11T16:18:42;96851.69;;;22.34
71640;BMP280;60912;48.968;10.124;2022-09-11T16:21:10;96842.81;;;22.40
71640;BMP280;60912;48.968;10.124;2022-09-11T16:23:36;96843.69;;;22.42
71640;BMP280;60912;48.968;10.124;2022-09-11T16:26:08;96843.78;;;22.31
71640;BMP280;60912;48.968;10.124;2022-09-11T16:28:35;96842.63;;;22.22
71640;BMP280;60912;48.968;10.124;2022-09-11T16:31:02;96849.16;;;22.27
71640;BMP280;60912;48.968;10.124;2022-09-11T16:33:29;96846.88;;;22.10
71640;BMP280;60912;48.968;10.124;2022-09-11T16:36:04;96848.34;;;21.72
71640;BMP280;60912;48.968;10.124;2022-09-11T16:38:35;96853.13;;;21.83
71640;BMP280;60912;48.968;10.124;2022-09-11T16:41:15;96848.56;;;21.89